Pikesville, MD (21208)

04:29 EDT le 24 octobre 2014 (GMT -0400)
Ruxton | Change Station
CLOSE
Current Station
Stations météorologiques personnelles
Location: Towson, MD
Altitude: 359 ft
Stations météo à proximité

Alt. 359 ft 39.40 °N, 76.63 °W | Updated 4 minutes ago

Partiellement nuageux
Partiellement nuageux
53.4 ° F
Paraît 53.4 ° F
N
0.0
Vent Variable Vent de Ouest
Gusts 0.0 mph

Aujourd'hui
Haut(e) -- | Bas -- ° F
--% Risque de précip.
Hier
Haut(e) -- | Bas -- ° F
Precip. -- pouce
7:26 AM 6:15 PM
Nouvelle lune, 0% visible
Pression 29.89 pouce
Visibilité 10.0 Miles terrestres
Nuages Peu 4500 ft
Point de rosée 38 ° F
Humidité 55%
Précipitations 0.00 pouce
Profondeur de la couche neigeuse Non disponible.
UV 0 sur 12
Pollen 1.80 sur 12
Qualité de l'air Non disponible.
Flu Activity Sporadic
METAR KBWI 240754Z 29009KT 10SM FEW045 12/05 A2989 RMK AO2 SLP120 T01220050

More Conditions Fewer Conditions

Pression 29.89 pouce
Visibilité 10.0 Miles terrestres
Nuages Peu 4500 ft
Point de rosée 38 ° F
Humidité 55%
Précipitations 0.00 pouce
Profondeur de la couche neigeuse Non disponible.
UV 0 sur 12
Pollen 1.80 sur 12
Qualité de l'air Non disponible.
Flu Activity Sporadic
METAR KBWI 240754Z 29009KT 10SM FEW045 12/05 A2989 RMK AO2 SLP120 T01220050

More Conditions Fewer Conditions

10-Day Weather Forecast

Almanac

Astronomie

Oct. 24, 2014 Lever Coucher
Temps réel 07:26 EDT 18:15 EDT
Crépuscule civil 06:58 EDT 18:42 EDT
Crépuscule nautique 06:27 EDT 19:14 EDT
Crépuscule astronomique 05:56 EDT 19:45 EDT
Lune 08:02 EDT 18:54 EDT
Durée de lumière visible 11h 44m
Longueur du jour
10h 49m
Tomorrow will be 2m 23s shorter.
Nouvelle lune, 0% of the Moon is Illuminated
Aujourd'hui
Nouvelle lune
Oct 30
Premier quartier
Nov 6
Pleine lune
Nov 14
Dernier quartier
Nov 22
Nouveau

Extrêmes aujourd'hui

State Highs State Lows

Community

WunderPhotos

Upload Photos

1,764,511 Photos téléchargées !

WunderBlogs® & News

Nearby

Épaisseur de neige

Station Depth Altitude
Pas de nouvelles chutes de neige

Activité sismique

Ville Distance Mag. Time & Date
No recent earthquake activity has been reported nearby.
Minimum magnitude displayed is 2.5.

Températures des eaux côtières

Lieu Température
Baltimore, MD 64.9 ° F
Tolchester Beach, MD 59.0 ° F
Washington, DC 61.0 ° F

Stations météo à proximité